Le Ponant — FGZZ — position and weather

sailwx.info

Track history (hours):
 
Tides and Currents Weather Stations Pressure Air Temp Water Temp Dewpoint Dewpoint Depression Visibility Wind Speed Wind Dir Waves Ship Positions

Le Ponant

Operator: Compangy des Iles du Ponant

Last reported at 2014-Dec-19 02:14 UTC. Time now 2014-Dec-20 15:43 UTC.
Position N 16°35' W 061°49'.

Length 84 m; draft 4.2 m.

Type: Passenger vessel. MMSI: 227186000.

Date/timePositionNaut miles runAvg speedWind from/ knotsBaromVisibWave heightAir tempDewpointWater temp
2014-Dec-19 02:14N 16°35' W 061°49'5 7.6
2014-Dec-19 01:33N 16°40' W 061°48'8 7.6
2014-Dec-19 00:34N 16°47' W 061°45'9 8.6
2014-Dec-18 23:33N 16°55' W 061°46'5 5.1
2014-Dec-18 22:32N 17°00' W 061°47'0 0.0
2014-Dec-18 21:32N 17°00' W 061°47'0 0.0
2014-Dec-18 20:32N 17°00' W 061°47'0 0.0
2014-Dec-18 19:32N 17°00' W 061°47'0 0.0
2014-Dec-18 18:32N 17°00' W 061°47'0 0.0
2014-Dec-18 17:32N 17°00' W 061°47'0 0.0
2014-Dec-18 16:32N 17°00' W 061°47'0 0.0
2014-Dec-18 15:32N 17°00' W 061°47'0 0.0
2014-Dec-18 14:32N 17°00' W 061°47'0 0.0
2014-Dec-18 13:32N 17°00' W 061°47'0 0.0
2014-Dec-18 12:32N 17°00' W 061°47'0 0.0
2014-Dec-18 11:32N 17°00' W 061°47'1 1.3
2014-Dec-18 10:33N 16°60' W 061°48'8 7.7
2014-Dec-18 09:34N 17°00' W 061°56'169 3.6
2014-Dec-16 11:18N 18°27' W 064°28'8 9.1
2014-Dec-16 10:25N 18°30' W 064°36'8 9.3
2014-Dec-16 09:33N 18°26' W 064°43'3 2.6
2014-Dec-16 08:20N 18°26' W 064°46'0 0.0
2014-Dec-16 07:26N 18°26' W 064°46'0 0.0
2014-Dec-16 06:32N 18°26' W 064°46'0 0.0
2014-Dec-16 05:32N 18°26' W 064°46'0 0.0
2014-Dec-16 04:30N 18°26' W 064°46'0 0.0
2014-Dec-16 03:26N 18°26' W 064°46'0 0.0
2014-Dec-16 02:32N 18°26' W 064°46'0 0.0
2014-Dec-16 00:28N 18°26' W 064°46'0 0.0
2014-Dec-15 23:17N 18°26' W 064°46'0 0.0
2014-Dec-15 22:26N 18°26' W 064°46'0 0.0
2014-Dec-15 21:29N 18°26' W 064°46'0 0.0
2014-Dec-15 20:29N 18°26' W 064°46'0 0.0
2014-Dec-15 19:29N 18°26' W 064°46'0 0.0
2014-Dec-15 18:29N 18°26' W 064°46'0 0.0
2014-Dec-15 17:32N 18°26' W 064°46'0 0.0
2014-Dec-15 16:26N 18°26' W 064°46'0 0.0
2014-Dec-15 15:33N 18°26' W 064°46'0 0.0
2014-Dec-15 14:33N 18°26' W 064°46'0 0.0
2014-Dec-15 13:33N 18°26' W 064°46'0 0.0
2014-Dec-15 12:33N 18°26' W 064°46'3 2.6
2014-Dec-15 11:33N 18°26' W 064°43'9 8.0
2014-Dec-15 10:23N 18°30' W 064°35'1310.4
2014-Dec-15 09:07N 18°32' W 064°21'  
2014-Dec-11 03:16N 16°46' W 062°20'  
Track history (hours):
 
Tides and Currents Weather Stations Pressure Air Temp Water Temp Dewpoint Dewpoint Depression Visibility Wind Speed Wind Dir Waves Ship Positions

Le Ponant

Operator: Compangy des Iles du Ponant

Last reported at 2014-Dec-19 02:14 UTC. Time now 2014-Dec-20 15:43 UTC.
Position N 16°35' W 061°49'.

Length 84 m; draft 4.2 m.

Type: Passenger vessel. MMSI: 227186000.

Date/timePositionNaut miles runAvg speedWind from/ knotsBaromVisibWave heightAir tempDewpointWater temp
2014-Dec-19 02:14N 16°35' W 061°49'5 7.6
2014-Dec-19 01:33N 16°40' W 061°48'8 7.6
2014-Dec-19 00:34N 16°47' W 061°45'9 8.6
2014-Dec-18 23:33N 16°55' W 061°46'5 5.1
2014-Dec-18 22:32N 17°00' W 061°47'0 0.0
2014-Dec-18 21:32N 17°00' W 061°47'0 0.0
2014-Dec-18 20:32N 17°00' W 061°47'0 0.0
2014-Dec-18 19:32N 17°00' W 061°47'0 0.0
2014-Dec-18 18:32N 17°00' W 061°47'0 0.0
2014-Dec-18 17:32N 17°00' W 061°47'0 0.0
2014-Dec-18 16:32N 17°00' W 061°47'0 0.0
2014-Dec-18 15:32N 17°00' W 061°47'0 0.0
2014-Dec-18 14:32N 17°00' W 061°47'0 0.0
2014-Dec-18 13:32N 17°00' W 061°47'0 0.0
2014-Dec-18 12:32N 17°00' W 061°47'0 0.0
2014-Dec-18 11:32N 17°00' W 061°47'1 1.3
2014-Dec-18 10:33N 16°60' W 061°48'8 7.7
2014-Dec-18 09:34N 17°00' W 061°56'169 3.6
2014-Dec-16 11:18N 18°27' W 064°28'8 9.1
2014-Dec-16 10:25N 18°30' W 064°36'8 9.3
2014-Dec-16 09:33N 18°26' W 064°43'3 2.6
2014-Dec-16 08:20N 18°26' W 064°46'0 0.0
2014-Dec-16 07:26N 18°26' W 064°46'0 0.0
2014-Dec-16 06:32N 18°26' W 064°46'0 0.0
2014-Dec-16 05:32N 18°26' W 064°46'0 0.0
2014-Dec-16 04:30N 18°26' W 064°46'0 0.0
2014-Dec-16 03:26N 18°26' W 064°46'0 0.0
2014-Dec-16 02:32N 18°26' W 064°46'0 0.0
2014-Dec-16 00:28N 18°26' W 064°46'0 0.0
2014-Dec-15 23:17N 18°26' W 064°46'0 0.0
2014-Dec-15 22:26N 18°26' W 064°46'0 0.0
2014-Dec-15 21:29N 18°26' W 064°46'0 0.0
2014-Dec-15 20:29N 18°26' W 064°46'0 0.0
2014-Dec-15 19:29N 18°26' W 064°46'0 0.0
2014-Dec-15 18:29N 18°26' W 064°46'0 0.0
2014-Dec-15 17:32N 18°26' W 064°46'0 0.0
2014-Dec-15 16:26N 18°26' W 064°46'0 0.0
2014-Dec-15 15:33N 18°26' W 064°46'0 0.0
2014-Dec-15 14:33N 18°26' W 064°46'0 0.0
2014-Dec-15 13:33N 18°26' W 064°46'0 0.0
2014-Dec-15 12:33N 18°26' W 064°46'3 2.6
2014-Dec-15 11:33N 18°26' W 064°43'9 8.0
2014-Dec-15 10:23N 18°30' W 064°35'1310.4
2014-Dec-15 09:07N 18°32' W 064°21'  
2014-Dec-11 03:16N 16°46' W 062°20'  

Dump ship's entire track history